sensor_id;sensor_type;location;lat;lon;timestamp;P1;durP1;ratioP1;P2;durP2;ratioP2
76176;SDS011;64938;47.696;8.066;2023-08-31T00:00:48;4.40;;;4.00;;
76176;SDS011;64938;47.696;8.066;2023-08-31T00:03:18;4.40;;;4.10;;
76176;SDS011;64938;47.696;8.066;2023-08-31T00:05:45;4.00;;;3.67;;
76176;SDS011;64938;47.696;8.066;2023-08-31T00:08:11;4.53;;;3.83;;
76176;SDS011;64938;47.696;8.066;2023-08-31T00:10:37;3.80;;;3.50;;
76176;SDS011;64938;47.696;8.066;2023-08-31T00:13:03;3.73;;;3.43;;
76176;SDS011;64938;47.696;8.066;2023-08-31T00:15:33;3.63;;;3.20;;
76176;SDS011;64938;47.696;8.066;2023-08-31T00:18:01;3.20;;;2.90;;
76176;SDS011;64938;47.696;8.066;2023-08-31T00:20:29;3.33;;;3.13;;
76176;SDS011;64938;47.696;8.066;2023-08-31T00:22:55;3.10;;;2.90;;
76176;SDS011;64938;47.696;8.066;2023-08-31T00:25:23;2.90;;;2.67;;
76176;SDS011;64938;47.696;8.066;2023-08-31T00:27:48;3.13;;;2.90;;
76176;SDS011;64938;47.696;8.066;2023-08-31T00:30:14;3.17;;;2.97;;
76176;SDS011;64938;47.696;8.066;2023-08-31T00:32:40;3.20;;;2.90;;
76176;SDS011;64938;47.696;8.066;2023-08-31T00:35:08;3.40;;;3.10;;
76176;SDS011;64938;47.696;8.066;2023-08-31T00:37:34;5.50;;;3.17;;
76176;SDS011;64938;47.696;8.066;2023-08-31T00:39:59;3.50;;;3.20;;
76176;SDS011;64938;47.696;8.066;2023-08-31T00:42:25;3.03;;;2.83;;
76176;SDS011;64938;47.696;8.066;2023-08-31T00:44:51;3.30;;;3.00;;
76176;SDS011;64938;47.696;8.066;2023-08-31T00:47:16;3.40;;;3.10;;
76176;SDS011;64938;47.696;8.066;2023-08-31T00:49:42;4.43;;;3.13;;
76176;SDS011;64938;47.696;8.066;2023-08-31T00:52:08;3.73;;;2.97;;
76176;SDS011;64938;47.696;8.066;2023-08-31T00:54:34;4.70;;;3.47;;
76176;SDS011;64938;47.696;8.066;2023-08-31T00:57:00;3.40;;;3.20;;
76176;SDS011;64938;47.696;8.066;2023-08-31T00:59:28;3.97;;;3.67;;
76176;SDS011;64938;47.696;8.066;2023-08-31T01:07:30;3.70;;;3.10;;
76176;SDS011;64938;47.696;8.066;2023-08-31T01:13:03;3.00;;;2.80;;
76176;SDS011;64938;47.696;8.066;2023-08-31T01:15:41;4.00;;;3.70;;
76176;SDS011;64938;47.696;8.066;2023-08-31T01:18:10;4.60;;;3.67;;
76176;SDS011;64938;47.696;8.066;2023-08-31T01:20:38;4.03;;;3.60;;
76176;SDS011;64938;47.696;8.066;2023-08-31T01:23:20;3.40;;;3.10;;
76176;SDS011;64938;47.696;8.066;2023-08-31T01:25:47;2.80;;;2.43;;
76176;SDS011;64938;47.696;8.066;2023-08-31T01:28:13;2.90;;;2.50;;
76176;SDS011;64938;47.696;8.066;2023-08-31T01:30:39;3.27;;;2.43;;
76176;SDS011;64938;47.696;8.066;2023-08-31T01:33:05;4.47;;;3.10;;
76176;SDS011;64938;47.696;8.066;2023-08-31T01:35:33;2.37;;;1.93;;
76176;SDS011;64938;47.696;8.066;2023-08-31T01:38:02;2.43;;;2.23;;
76176;SDS011;64938;47.696;8.066;2023-08-31T01:43:06;1.90;;;1.80;;
76176;SDS011;64938;47.696;8.066;2023-08-31T01:45:32;1.80;;;1.70;;
76176;SDS011;64938;47.696;8.066;2023-08-31T01:48:02;1.87;;;1.67;;
76176;SDS011;64938;47.696;8.066;2023-08-31T01:50:29;2.10;;;1.90;;
76176;SDS011;64938;47.696;8.066;2023-08-31T01:52:55;2.13;;;2.00;;
76176;SDS011;64938;47.696;8.066;2023-08-31T01:55:26;1.77;;;1.67;;
76176;SDS011;64938;47.696;8.066;2023-08-31T01:57:52;2.20;;;2.00;;
76176;SDS011;64938;47.696;8.066;2023-08-31T02:00:18;3.20;;;1.93;;
76176;SDS011;64938;47.696;8.066;2023-08-31T02:02:44;1.80;;;1.70;;
76176;SDS011;64938;47.696;8.066;2023-08-31T02:05:09;2.27;;;2.07;;
76176;SDS011;64938;47.696;8.066;2023-08-31T02:07:35;2.90;;;2.40;;
76176;SDS011;64938;47.696;8.066;2023-08-31T02:10:02;2.20;;;2.00;;
76176;SDS011;64938;47.696;8.066;2023-08-31T02:12:32;3.30;;;2.23;;
76176;SDS011;64938;47.696;8.066;2023-08-31T02:14:59;2.80;;;2.23;;
76176;SDS011;64938;47.696;8.066;2023-08-31T02:17:25;2.30;;;2.10;;
76176;SDS011;64938;47.696;8.066;2023-08-31T02:19:50;3.20;;;2.40;;
76176;SDS011;64938;47.696;8.066;2023-08-31T02:22:18;2.47;;;2.27;;
76176;SDS011;64938;47.696;8.066;2023-08-31T02:24:43;1.80;;;1.70;;
76176;SDS011;64938;47.696;8.066;2023-08-31T02:27:09;2.40;;;2.10;;
76176;SDS011;64938;47.696;8.066;2023-08-31T02:29:36;2.93;;;2.33;;
76176;SDS011;64938;47.696;8.066;2023-08-31T02:32:05;4.00;;;2.17;;
76176;SDS011;64938;47.696;8.066;2023-08-31T02:34:31;2.40;;;2.20;;
76176;SDS011;64938;47.696;8.066;2023-08-31T02:36:56;3.20;;;2.87;;
76176;SDS011;64938;47.696;8.066;2023-08-31T02:39:25;3.47;;;2.80;;
76176;SDS011;64938;47.696;8.066;2023-08-31T02:41:51;2.67;;;2.30;;
76176;SDS011;64938;47.696;8.066;2023-08-31T02:44:17;2.80;;;2.60;;
76176;SDS011;64938;47.696;8.066;2023-08-31T02:46:42;3.63;;;2.97;;
76176;SDS011;64938;47.696;8.066;2023-08-31T02:49:08;3.20;;;3.00;;
76176;SDS011;64938;47.696;8.066;2023-08-31T02:51:33;4.03;;;3.20;;
76176;SDS011;64938;47.696;8.066;2023-08-31T02:54:02;3.13;;;2.83;;
76176;SDS011;64938;47.696;8.066;2023-08-31T02:56:30;4.37;;;3.40;;
76176;SDS011;64938;47.696;8.066;2023-08-31T02:58:56;3.27;;;2.80;;
76176;SDS011;64938;47.696;8.066;2023-08-31T03:01:22;6.90;;;3.97;;
76176;SDS011;64938;47.696;8.066;2023-08-31T03:03:50;6.10;;;3.43;;
76176;SDS011;64938;47.696;8.066;2023-08-31T03:06:16;4.50;;;3.23;;
76176;SDS011;64938;47.696;8.066;2023-08-31T03:08:42;4.47;;;4.07;;
76176;SDS011;64938;47.696;8.066;2023-08-31T03:11:07;4.77;;;3.70;;
76176;SDS011;64938;47.696;8.066;2023-08-31T03:13:33;5.07;;;3.90;;
76176;SDS011;64938;47.696;8.066;2023-08-31T03:15:59;7.90;;;4.30;;
76176;SDS011;64938;47.696;8.066;2023-08-31T03:18:25;7.13;;;4.40;;
76176;SDS011;64938;47.696;8.066;2023-08-31T03:20:51;6.20;;;5.57;;
76176;SDS011;64938;47.696;8.066;2023-08-31T03:23:16;5.43;;;4.17;;
76176;SDS011;64938;47.696;8.066;2023-08-31T03:25:42;5.00;;;4.60;;
76176;SDS011;64938;47.696;8.066;2023-08-31T03:28:09;5.90;;;4.40;;
76176;SDS011;64938;47.696;8.066;2023-08-31T03:30:35;8.30;;;5.80;;
76176;SDS011;64938;47.696;8.066;2023-08-31T03:33:04;6.67;;;5.10;;
76176;SDS011;64938;47.696;8.066;2023-08-31T03:35:31;6.23;;;5.63;;
76176;SDS011;64938;47.696;8.066;2023-08-31T03:37:57;6.10;;;5.50;;
76176;SDS011;64938;47.696;8.066;2023-08-31T03:40:22;8.17;;;5.77;;
76176;SDS011;64938;47.696;8.066;2023-08-31T03:42:49;10.17;;;6.53;;
76176;SDS011;64938;47.696;8.066;2023-08-31T03:45:15;7.90;;;5.90;;
76176;SDS011;64938;47.696;8.066;2023-08-31T03:47:41;11.90;;;5.97;;
76176;SDS011;64938;47.696;8.066;2023-08-31T03:50:10;10.53;;;6.90;;
76176;SDS011;64938;47.696;8.066;2023-08-31T03:52:37;8.80;;;6.10;;
76176;SDS011;64938;47.696;8.066;2023-08-31T03:55:02;8.13;;;6.37;;
76176;SDS011;64938;47.696;8.066;2023-08-31T03:57:33;8.00;;;5.70;;
76176;SDS011;64938;47.696;8.066;2023-08-31T03:59:58;9.07;;;7.13;;
76176;SDS011;64938;47.696;8.066;2023-08-31T04:02:27;10.23;;;7.00;;
76176;SDS011;64938;47.696;8.066;2023-08-31T04:04:56;12.97;;;6.27;;
76176;SDS011;64938;47.696;8.066;2023-08-31T04:07:23;9.50;;;6.90;;
76176;SDS011;64938;47.696;8.066;2023-08-31T04:09:48;8.33;;;6.60;;
76176;SDS011;64938;47.696;8.066;2023-08-31T04:12:14;7.60;;;6.90;;
76176;SDS011;64938;47.696;8.066;2023-08-31T04:14:39;7.00;;;6.30;;
76176;SDS011;64938;47.696;8.066;2023-08-31T04:17:05;8.60;;;6.80;;
76176;SDS011;64938;47.696;8.066;2023-08-31T04:19:33;7.07;;;6.37;;
76176;SDS011;64938;47.696;8.066;2023-08-31T04:21:59;7.20;;;6.20;;
76176;SDS011;64938;47.696;8.066;2023-08-31T04:24:24;8.13;;;6.17;;
76176;SDS011;64938;47.696;8.066;2023-08-31T04:26:50;7.20;;;6.10;;
76176;SDS011;64938;47.696;8.066;2023-08-31T04:29:16;6.63;;;6.03;;
76176;SDS011;64938;47.696;8.066;2023-08-31T04:31:42;9.00;;;6.80;;
76176;SDS011;64938;47.696;8.066;2023-08-31T04:34:07;8.30;;;5.70;;
76176;SDS011;64938;47.696;8.066;2023-08-31T04:36:34;6.03;;;5.43;;
76176;SDS011;64938;47.696;8.066;2023-08-31T04:39:00;8.67;;;5.77;;
76176;SDS011;64938;47.696;8.066;2023-08-31T04:41:30;5.90;;;5.30;;
76176;SDS011;64938;47.696;8.066;2023-08-31T04:43:56;6.20;;;5.53;;
76176;SDS011;64938;47.696;8.066;2023-08-31T04:46:26;6.13;;;5.37;;
76176;SDS011;64938;47.696;8.066;2023-08-31T04:48:58;9.20;;;5.57;;
76176;SDS011;64938;47.696;8.066;2023-08-31T04:51:30;5.73;;;5.10;;
76176;SDS011;64938;47.696;8.066;2023-08-31T04:54:01;6.10;;;5.33;;
76176;SDS011;64938;47.696;8.066;2023-08-31T04:56:31;6.10;;;5.60;;
76176;SDS011;64938;47.696;8.066;2023-08-31T04:59:00;5.83;;;5.23;;
76176;SDS011;64938;47.696;8.066;2023-08-31T05:01:27;8.27;;;6.40;;
76176;SDS011;64938;47.696;8.066;2023-08-31T05:03:53;9.87;;;5.97;;
76176;SDS011;64938;47.696;8.066;2023-08-31T05:06:21;6.23;;;5.67;;
76176;SDS011;64938;47.696;8.066;2023-08-31T05:08:47;7.13;;;5.53;;
76176;SDS011;64938;47.696;8.066;2023-08-31T05:11:13;6.40;;;5.40;;
76176;SDS011;64938;47.696;8.066;2023-08-31T05:13:42;5.90;;;5.03;;
76176;SDS011;64938;47.696;8.066;2023-08-31T05:16:08;5.50;;;4.97;;
76176;SDS011;64938;47.696;8.066;2023-08-31T05:18:35;6.23;;;5.53;;
76176;SDS011;64938;47.696;8.066;2023-08-31T05:21:02;5.10;;;4.60;;
76176;SDS011;64938;47.696;8.066;2023-08-31T05:23:28;5.47;;;4.97;;
76176;SDS011;64938;47.696;8.066;2023-08-31T05:25:56;4.87;;;4.47;;
76176;SDS011;64938;47.696;8.066;2023-08-31T05:28:22;4.90;;;4.40;;
76176;SDS011;64938;47.696;8.066;2023-08-31T05:30:48;4.73;;;3.77;;
76176;SDS011;64938;47.696;8.066;2023-08-31T05:33:22;4.40;;;4.00;;
76176;SDS011;64938;47.696;8.066;2023-08-31T05:35:50;6.73;;;3.10;;
76176;SDS011;64938;47.696;8.066;2023-08-31T05:38:19;4.50;;;3.37;;
76176;SDS011;64938;47.696;8.066;2023-08-31T05:40:47;3.97;;;3.67;;
76176;SDS011;64938;47.696;8.066;2023-08-31T05:43:13;3.60;;;3.30;;
76176;SDS011;64938;47.696;8.066;2023-08-31T05:45:43;3.60;;;2.90;;
76176;SDS011;64938;47.696;8.066;2023-08-31T05:48:11;7.73;;;3.43;;
76176;SDS011;64938;47.696;8.066;2023-08-31T05:50:41;3.33;;;3.03;;
76176;SDS011;64938;47.696;8.066;2023-08-31T05:53:12;3.60;;;3.20;;
76176;SDS011;64938;47.696;8.066;2023-08-31T05:55:37;3.10;;;2.80;;
76176;SDS011;64938;47.696;8.066;2023-08-31T05:58:03;5.40;;;3.67;;
76176;SDS011;64938;47.696;8.066;2023-08-31T06:00:31;3.50;;;3.07;;
76176;SDS011;64938;47.696;8.066;2023-08-31T06:02:57;4.03;;;3.27;;
76176;SDS011;64938;47.696;8.066;2023-08-31T06:05:25;3.63;;;3.07;;
76176;SDS011;64938;47.696;8.066;2023-08-31T06:07:54;4.20;;;3.07;;
76176;SDS011;64938;47.696;8.066;2023-08-31T06:10:19;5.83;;;3.50;;
76176;SDS011;64938;47.696;8.066;2023-08-31T06:12:49;4.83;;;3.53;;
76176;SDS011;64938;47.696;8.066;2023-08-31T06:15:15;3.93;;;3.53;;
76176;SDS011;64938;47.696;8.066;2023-08-31T06:17:41;4.20;;;3.77;;
76176;SDS011;64938;47.696;8.066;2023-08-31T06:20:07;5.13;;;4.00;;
76176;SDS011;64938;47.696;8.066;2023-08-31T06:22:42;6.30;;;3.37;;
76176;SDS011;64938;47.696;8.066;2023-08-31T06:25:08;3.63;;;3.33;;
76176;SDS011;64938;47.696;8.066;2023-08-31T06:27:36;4.17;;;3.37;;
76176;SDS011;64938;47.696;8.066;2023-08-31T06:30:05;4.87;;;3.47;;
76176;SDS011;64938;47.696;8.066;2023-08-31T06:32:32;4.93;;;3.40;;
76176;SDS011;64938;47.696;8.066;2023-08-31T06:35:01;5.17;;;3.37;;
76176;SDS011;64938;47.696;8.066;2023-08-31T06:37:27;4.30;;;3.23;;
76176;SDS011;64938;47.696;8.066;2023-08-31T06:39:55;3.87;;;3.40;;
76176;SDS011;64938;47.696;8.066;2023-08-31T06:42:21;4.73;;;3.53;;
76176;SDS011;64938;47.696;8.066;2023-08-31T06:44:48;4.73;;;3.50;;
76176;SDS011;64938;47.696;8.066;2023-08-31T06:47:14;4.27;;;2.70;;
76176;SDS011;64938;47.696;8.066;2023-08-31T06:49:47;3.93;;;3.00;;
76176;SDS011;64938;47.696;8.066;2023-08-31T06:52:13;3.53;;;2.33;;
76176;SDS011;64938;47.696;8.066;2023-08-31T06:54:42;3.73;;;2.37;;
76176;SDS011;64938;47.696;8.066;2023-08-31T06:57:11;2.57;;;2.23;;
76176;SDS011;64938;47.696;8.066;2023-08-31T06:59:37;2.83;;;2.50;;
76176;SDS011;64938;47.696;8.066;2023-08-31T07:02:05;2.70;;;2.40;;
76176;SDS011;64938;47.696;8.066;2023-08-31T07:04:31;3.70;;;2.10;;
76176;SDS011;64938;47.696;8.066;2023-08-31T07:06:56;2.70;;;2.27;;
76176;SDS011;64938;47.696;8.066;2023-08-31T07:09:22;3.30;;;2.27;;
76176;SDS011;64938;47.696;8.066;2023-08-31T07:11:47;2.30;;;1.90;;
76176;SDS011;64938;47.696;8.066;2023-08-31T07:14:18;3.10;;;2.10;;
76176;SDS011;64938;47.696;8.066;2023-08-31T07:16:44;4.07;;;2.13;;
76176;SDS011;64938;47.696;8.066;2023-08-31T07:19:16;4.93;;;2.47;;
76176;SDS011;64938;47.696;8.066;2023-08-31T07:21:43;5.17;;;2.20;;
76176;SDS011;64938;47.696;8.066;2023-08-31T07:24:09;2.90;;;2.10;;
76176;SDS011;64938;47.696;8.066;2023-08-31T07:26:34;6.40;;;2.33;;
76176;SDS011;64938;47.696;8.066;2023-08-31T07:29:00;5.17;;;2.07;;
76176;SDS011;64938;47.696;8.066;2023-08-31T07:31:32;3.47;;;2.07;;
76176;SDS011;64938;47.696;8.066;2023-08-31T07:34:01;4.10;;;2.50;;
76176;SDS011;64938;47.696;8.066;2023-08-31T07:36:28;2.60;;;1.83;;
76176;SDS011;64938;47.696;8.066;2023-08-31T07:39:02;2.80;;;2.00;;
76176;SDS011;64938;47.696;8.066;2023-08-31T07:41:29;2.90;;;2.07;;
76176;SDS011;64938;47.696;8.066;2023-08-31T07:43:57;4.20;;;2.30;;
76176;SDS011;64938;47.696;8.066;2023-08-31T07:46:29;2.53;;;2.20;;
76176;SDS011;64938;47.696;8.066;2023-08-31T07:48:55;2.43;;;1.90;;
76176;SDS011;64938;47.696;8.066;2023-08-31T07:51:20;4.63;;;2.13;;
76176;SDS011;64938;47.696;8.066;2023-08-31T07:53:48;2.27;;;2.07;;
76176;SDS011;64938;47.696;8.066;2023-08-31T07:56:15;2.43;;;1.90;;
76176;SDS011;64938;47.696;8.066;2023-08-31T07:58:43;5.93;;;1.97;;
76176;SDS011;64938;47.696;8.066;2023-08-31T08:01:09;2.27;;;1.80;;
76176;SDS011;64938;47.696;8.066;2023-08-31T08:03:35;2.67;;;1.77;;
76176;SDS011;64938;47.696;8.066;2023-08-31T08:06:01;2.60;;;1.93;;
76176;SDS011;64938;47.696;8.066;2023-08-31T08:08:32;2.80;;;1.90;;
76176;SDS011;64938;47.696;8.066;2023-08-31T08:10:57;3.63;;;2.40;;
76176;SDS011;64938;47.696;8.066;2023-08-31T08:13:29;3.60;;;2.30;;
76176;SDS011;64938;47.696;8.066;2023-08-31T08:15:55;3.30;;;2.17;;
76176;SDS011;64938;47.696;8.066;2023-08-31T08:18:21;3.40;;;2.77;;
76176;SDS011;64938;47.696;8.066;2023-08-31T08:20:50;3.90;;;2.40;;
76176;SDS011;64938;47.696;8.066;2023-08-31T08:23:16;2.57;;;2.37;;
76176;SDS011;64938;47.696;8.066;2023-08-31T08:25:42;8.90;;;2.60;;
76176;SDS011;64938;47.696;8.066;2023-08-31T08:28:08;3.50;;;2.53;;
76176;SDS011;64938;47.696;8.066;2023-08-31T08:30:35;3.40;;;2.60;;
76176;SDS011;64938;47.696;8.066;2023-08-31T08:33:03;3.70;;;2.30;;
76176;SDS011;64938;47.696;8.066;2023-08-31T08:35:31;3.20;;;2.90;;
76176;SDS011;64938;47.696;8.066;2023-08-31T08:37:56;3.00;;;2.30;;
76176;SDS011;64938;47.696;8.066;2023-08-31T08:40:22;4.27;;;2.90;;
76176;SDS011;64938;47.696;8.066;2023-08-31T08:42:48;3.90;;;2.57;;
76176;SDS011;64938;47.696;8.066;2023-08-31T08:45:14;3.13;;;2.87;;
76176;SDS011;64938;47.696;8.066;2023-08-31T08:47:43;3.17;;;2.83;;
76176;SDS011;64938;47.696;8.066;2023-08-31T08:50:12;3.00;;;2.50;;
76176;SDS011;64938;47.696;8.066;2023-08-31T08:52:38;3.17;;;2.63;;
76176;SDS011;64938;47.696;8.066;2023-08-31T08:55:04;6.37;;;3.20;;
76176;SDS011;64938;47.696;8.066;2023-08-31T08:57:31;4.73;;;3.20;;
76176;SDS011;64938;47.696;8.066;2023-08-31T08:59:57;11.07;;;3.17;;
76176;SDS011;64938;47.696;8.066;2023-08-31T09:02:23;5.23;;;2.93;;
76176;SDS011;64938;47.696;8.066;2023-08-31T09:04:49;4.73;;;2.67;;
76176;SDS011;64938;47.696;8.066;2023-08-31T09:07:19;6.57;;;2.90;;
76176;SDS011;64938;47.696;8.066;2023-08-31T09:09:52;5.00;;;3.10;;
76176;SDS011;64938;47.696;8.066;2023-08-31T09:12:18;5.93;;;3.30;;
76176;SDS011;64938;47.696;8.066;2023-08-31T09:15:02;3.53;;;2.60;;
76176;SDS011;64938;47.696;8.066;2023-08-31T09:17:38;5.17;;;2.80;;
76176;SDS011;64938;47.696;8.066;2023-08-31T09:20:05;6.40;;;2.90;;
76176;SDS011;64938;47.696;8.066;2023-08-31T09:22:32;4.83;;;2.80;;
76176;SDS011;64938;47.696;8.066;2023-08-31T09:25:03;6.40;;;2.70;;
76176;SDS011;64938;47.696;8.066;2023-08-31T09:27:36;5.20;;;2.47;;
76176;SDS011;64938;47.696;8.066;2023-08-31T09:30:04;3.57;;;2.50;;
76176;SDS011;64938;47.696;8.066;2023-08-31T09:32:31;7.00;;;3.07;;
76176;SDS011;64938;47.696;8.066;2023-08-31T09:34:59;2.50;;;2.20;;
76176;SDS011;64938;47.696;8.066;2023-08-31T09:37:28;10.20;;;2.60;;
76176;SDS011;64938;47.696;8.066;2023-08-31T09:39:53;3.10;;;2.57;;
76176;SDS011;64938;47.696;8.066;2023-08-31T09:42:49;5.10;;;2.87;;
76176;SDS011;64938;47.696;8.066;2023-08-31T09:45:38;4.77;;;2.90;;
76176;SDS011;64938;47.696;8.066;2023-08-31T09:48:06;5.30;;;3.07;;
76176;SDS011;64938;47.696;8.066;2023-08-31T09:50:34;4.73;;;2.80;;
76176;SDS011;64938;47.696;8.066;2023-08-31T09:53:00;3.60;;;2.43;;
76176;SDS011;64938;47.696;8.066;2023-08-31T09:55:28;3.47;;;2.40;;
76176;SDS011;64938;47.696;8.066;2023-08-31T09:57:57;3.00;;;2.30;;
76176;SDS011;64938;47.696;8.066;2023-08-31T10:00:27;3.87;;;2.60;;
76176;SDS011;64938;47.696;8.066;2023-08-31T10:02:55;3.50;;;2.57;;
76176;SDS011;64938;47.696;8.066;2023-08-31T10:05:23;3.27;;;2.53;;
76176;SDS011;64938;47.696;8.066;2023-08-31T10:07:50;4.73;;;3.13;;
76176;SDS011;64938;47.696;8.066;2023-08-31T10:10:16;2.73;;;2.50;;
76176;SDS011;64938;47.696;8.066;2023-08-31T10:12:47;4.50;;;2.27;;
76176;SDS011;64938;47.696;8.066;2023-08-31T10:15:14;4.23;;;2.93;;
76176;SDS011;64938;47.696;8.066;2023-08-31T10:17:41;3.60;;;2.53;;
76176;SDS011;64938;47.696;8.066;2023-08-31T10:20:12;3.33;;;2.57;;
76176;SDS011;64938;47.696;8.066;2023-08-31T10:22:40;3.83;;;2.40;;
76176;SDS011;64938;47.696;8.066;2023-08-31T10:25:06;3.90;;;2.40;;
76176;SDS011;64938;47.696;8.066;2023-08-31T10:27:39;4.30;;;2.90;;
76176;SDS011;64938;47.696;8.066;2023-08-31T10:35:54;4.30;;;2.50;;
76176;SDS011;64938;47.696;8.066;2023-08-31T10:38:32;3.50;;;2.47;;
76176;SDS011;64938;47.696;8.066;2023-08-31T10:41:00;4.13;;;2.50;;
76176;SDS011;64938;47.696;8.066;2023-08-31T10:43:45;2.80;;;2.47;;
76176;SDS011;64938;47.696;8.066;2023-08-31T10:46:17;2.47;;;1.93;;
76176;SDS011;64938;47.696;8.066;2023-08-31T10:48:52;10.80;;;2.77;;
76176;SDS011;64938;47.696;8.066;2023-08-31T10:51:39;3.00;;;2.20;;
76176;SDS011;64938;47.696;8.066;2023-08-31T10:59:45;2.97;;;2.30;;
76176;SDS011;64938;47.696;8.066;2023-08-31T11:02:27;3.87;;;2.20;;
76176;SDS011;64938;47.696;8.066;2023-08-31T11:05:14;4.23;;;2.50;;
76176;SDS011;64938;47.696;8.066;2023-08-31T11:07:41;3.53;;;2.37;;
76176;SDS011;64938;47.696;8.066;2023-08-31T11:12:53;3.80;;;2.80;;
76176;SDS011;64938;47.696;8.066;2023-08-31T11:15:21;3.50;;;2.47;;
76176;SDS011;64938;47.696;8.066;2023-08-31T11:17:51;5.17;;;2.50;;
76176;SDS011;64938;47.696;8.066;2023-08-31T11:20:21;3.27;;;2.20;;
76176;SDS011;64938;47.696;8.066;2023-08-31T11:22:54;2.97;;;1.90;;
76176;SDS011;64938;47.696;8.066;2023-08-31T11:25:20;2.70;;;2.30;;
76176;SDS011;64938;47.696;8.066;2023-08-31T11:27:54;3.90;;;2.27;;
76176;SDS011;64938;47.696;8.066;2023-08-31T11:30:30;6.23;;;2.40;;
76176;SDS011;64938;47.696;8.066;2023-08-31T11:33:06;3.90;;;2.40;;
76176;SDS011;64938;47.696;8.066;2023-08-31T11:35:33;4.43;;;2.10;;
76176;SDS011;64938;47.696;8.066;2023-08-31T11:38:01;3.10;;;2.13;;
76176;SDS011;64938;47.696;8.066;2023-08-31T11:40:29;2.63;;;2.10;;
76176;SDS011;64938;47.696;8.066;2023-08-31T11:42:56;3.60;;;2.20;;
76176;SDS011;64938;47.696;8.066;2023-08-31T11:45:26;2.90;;;2.60;;
76176;SDS011;64938;47.696;8.066;2023-08-31T11:47:52;3.30;;;2.70;;
76176;SDS011;64938;47.696;8.066;2023-08-31T11:50:18;5.13;;;2.63;;
76176;SDS011;64938;47.696;8.066;2023-08-31T11:52:45;4.03;;;2.53;;
76176;SDS011;64938;47.696;8.066;2023-08-31T11:55:11;2.80;;;2.53;;
76176;SDS011;64938;47.696;8.066;2023-08-31T11:57:38;2.70;;;2.50;;
76176;SDS011;64938;47.696;8.066;2023-08-31T12:00:04;3.43;;;2.33;;
76176;SDS011;64938;47.696;8.066;2023-08-31T12:02:35;3.90;;;2.13;;
76176;SDS011;64938;47.696;8.066;2023-08-31T12:05:06;3.00;;;2.20;;
76176;SDS011;64938;47.696;8.066;2023-08-31T12:07:39;3.80;;;2.10;;
76176;SDS011;64938;47.696;8.066;2023-08-31T12:10:08;4.37;;;2.37;;
76176;SDS011;64938;47.696;8.066;2023-08-31T12:12:35;4.17;;;2.60;;
76176;SDS011;64938;47.696;8.066;2023-08-31T12:15:06;2.80;;;2.47;;
76176;SDS011;64938;47.696;8.066;2023-08-31T12:17:40;2.63;;;2.43;;
76176;SDS011;64938;47.696;8.066;2023-08-31T12:20:07;4.73;;;2.40;;
76176;SDS011;64938;47.696;8.066;2023-08-31T12:22:41;2.63;;;2.27;;
76176;SDS011;64938;47.696;8.066;2023-08-31T12:25:19;3.00;;;2.10;;
76176;SDS011;64938;47.696;8.066;2023-08-31T12:27:48;3.50;;;2.70;;
76176;SDS011;64938;47.696;8.066;2023-08-31T12:30:15;5.07;;;2.50;;
76176;SDS011;64938;47.696;8.066;2023-08-31T12:32:40;4.13;;;2.20;;
76176;SDS011;64938;47.696;8.066;2023-08-31T12:35:06;3.00;;;2.20;;
76176;SDS011;64938;47.696;8.066;2023-08-31T12:37:39;4.00;;;2.60;;
76176;SDS011;64938;47.696;8.066;2023-08-31T12:40:04;5.23;;;2.83;;
76176;SDS011;64938;47.696;8.066;2023-08-31T12:42:32;2.60;;;2.40;;
76176;SDS011;64938;47.696;8.066;2023-08-31T12:44:57;3.23;;;2.50;;
76176;SDS011;64938;47.696;8.066;2023-08-31T12:50:47;3.40;;;2.70;;
76176;SDS011;64938;47.696;8.066;2023-08-31T12:53:17;3.70;;;2.60;;
76176;SDS011;64938;47.696;8.066;2023-08-31T12:55:43;2.70;;;2.33;;
76176;SDS011;64938;47.696;8.066;2023-08-31T12:58:16;3.93;;;2.83;;
76176;SDS011;64938;47.696;8.066;2023-08-31T13:00:41;2.87;;;2.50;;
76176;SDS011;64938;47.696;8.066;2023-08-31T13:03:11;2.90;;;2.57;;
76176;SDS011;64938;47.696;8.066;2023-08-31T13:05:39;5.23;;;2.77;;
76176;SDS011;64938;47.696;8.066;2023-08-31T13:08:06;4.13;;;2.70;;
76176;SDS011;64938;47.696;8.066;2023-08-31T13:10:32;5.57;;;2.67;;
76176;SDS011;64938;47.696;8.066;2023-08-31T13:12:57;3.10;;;2.40;;
76176;SDS011;64938;47.696;8.066;2023-08-31T13:15:27;3.20;;;2.50;;
76176;SDS011;64938;47.696;8.066;2023-08-31T13:17:52;2.63;;;2.37;;
76176;SDS011;64938;47.696;8.066;2023-08-31T13:20:18;2.40;;;2.20;;
76176;SDS011;64938;47.696;8.066;2023-08-31T13:22:48;4.00;;;2.60;;
76176;SDS011;64938;47.696;8.066;2023-08-31T13:25:13;3.97;;;2.73;;
76176;SDS011;64938;47.696;8.066;2023-08-31T13:27:39;3.30;;;2.70;;
76176;SDS011;64938;47.696;8.066;2023-08-31T13:30:07;2.47;;;2.27;;
76176;SDS011;64938;47.696;8.066;2023-08-31T13:32:34;3.10;;;2.40;;
76176;SDS011;64938;47.696;8.066;2023-08-31T13:34:59;3.50;;;2.30;;
76176;SDS011;64938;47.696;8.066;2023-08-31T13:37:30;2.53;;;2.33;;
76176;SDS011;64938;47.696;8.066;2023-08-31T13:39:56;3.53;;;2.30;;
76176;SDS011;64938;47.696;8.066;2023-08-31T13:42:21;3.60;;;2.63;;
76176;SDS011;64938;47.696;8.066;2023-08-31T13:44:51;3.40;;;2.10;;
76176;SDS011;64938;47.696;8.066;2023-08-31T13:47:17;4.00;;;2.17;;
76176;SDS011;64938;47.696;8.066;2023-08-31T13:49:42;4.23;;;2.43;;
76176;SDS011;64938;47.696;8.066;2023-08-31T13:52:08;2.67;;;2.30;;
76176;SDS011;64938;47.696;8.066;2023-08-31T13:54:35;3.17;;;2.20;;
76176;SDS011;64938;47.696;8.066;2023-08-31T13:57:01;2.33;;;2.07;;
76176;SDS011;64938;47.696;8.066;2023-08-31T13:59:29;4.67;;;2.30;;
76176;SDS011;64938;47.696;8.066;2023-08-31T14:01:57;4.77;;;2.27;;
76176;SDS011;64938;47.696;8.066;2023-08-31T14:04:22;3.00;;;2.50;;
76176;SDS011;64938;47.696;8.066;2023-08-31T14:06:48;2.20;;;1.70;;
76176;SDS011;64938;47.696;8.066;2023-08-31T14:09:14;3.30;;;2.50;;
76176;SDS011;64938;47.696;8.066;2023-08-31T14:11:42;2.97;;;2.10;;
76176;SDS011;64938;47.696;8.066;2023-08-31T14:14:08;3.40;;;2.20;;
76176;SDS011;64938;47.696;8.066;2023-08-31T14:16:37;3.73;;;2.23;;
76176;SDS011;64938;47.696;8.066;2023-08-31T14:19:03;3.13;;;2.33;;
76176;SDS011;64938;47.696;8.066;2023-08-31T14:21:32;2.80;;;2.30;;
76176;SDS011;64938;47.696;8.066;2023-08-31T14:24:00;4.37;;;2.27;;
76176;SDS011;64938;47.696;8.066;2023-08-31T14:26:25;3.20;;;2.40;;
76176;SDS011;64938;47.696;8.066;2023-08-31T14:28:55;3.07;;;2.40;;
76176;SDS011;64938;47.696;8.066;2023-08-31T14:31:25;2.57;;;2.30;;
76176;SDS011;64938;47.696;8.066;2023-08-31T14:33:52;2.73;;;2.00;;
76176;SDS011;64938;47.696;8.066;2023-08-31T14:36:20;4.57;;;2.70;;
76176;SDS011;64938;47.696;8.066;2023-08-31T14:38:51;3.13;;;2.30;;
76176;SDS011;64938;47.696;8.066;2023-08-31T14:41:21;4.43;;;2.60;;
76176;SDS011;64938;47.696;8.066;2023-08-31T14:43:47;3.40;;;2.20;;
76176;SDS011;64938;47.696;8.066;2023-08-31T14:46:12;4.30;;;2.13;;
76176;SDS011;64938;47.696;8.066;2023-08-31T14:48:41;2.93;;;2.10;;
76176;SDS011;64938;47.696;8.066;2023-08-31T14:51:06;3.83;;;2.40;;
76176;SDS011;64938;47.696;8.066;2023-08-31T14:53:34;3.50;;;2.40;;
76176;SDS011;64938;47.696;8.066;2023-08-31T14:56:00;4.43;;;2.40;;
76176;SDS011;64938;47.696;8.066;2023-08-31T14:58:27;4.40;;;2.30;;
76176;SDS011;64938;47.696;8.066;2023-08-31T15:00:55;3.67;;;2.37;;
76176;SDS011;64938;47.696;8.066;2023-08-31T15:03:21;2.53;;;2.33;;
76176;SDS011;64938;47.696;8.066;2023-08-31T15:05:49;5.40;;;2.40;;
76176;SDS011;64938;47.696;8.066;2023-08-31T15:08:17;4.20;;;2.40;;
76176;SDS011;64938;47.696;8.066;2023-08-31T15:10:47;3.40;;;2.30;;
76176;SDS011;64938;47.696;8.066;2023-08-31T15:13:16;2.63;;;2.20;;
76176;SDS011;64938;47.696;8.066;2023-08-31T15:15:47;3.20;;;2.00;;
76176;SDS011;64938;47.696;8.066;2023-08-31T15:18:14;3.67;;;2.43;;
76176;SDS011;64938;47.696;8.066;2023-08-31T15:20:41;3.70;;;2.13;;